CMA CGM Musset — 9HA2284 — position and weather

sailwx.info

Track history (hours):
 
Tides and Currents Weather Stations Pressure Air Temp Water Temp Dewpoint Dewpoint Depression Visibility Wind Speed Wind Dir Waves Ship Positions

CMA CGM Musset

Last reported at 2018-May-29 22:31 UTC. Time now 2018-Jun-20 07:52 UTC.
Position N 24°05' E 118°51'.
Warning: this ship's position is 21 days out of date.

Length 300 m; draft 8.2 m.

Type: Cargo ship. MMSI: 248247000.

Date/timePositionNaut miles runAvg speedWind from/ knotsBaromVisibWave heightAir tempDewpointWater temp
2018-May-29 22:31N 24°05' E 118°51'116.1
2018-May-29 22:29N 24°04' E 118°50'815.9
2018-May-29 22:00N 23°59' E 118°44'915.7
2018-May-29 21:25N 23°53' E 118°36'715.5
2018-May-29 21:00N 23°49' E 118°31'815.2
2018-May-29 20:29N 23°44' E 118°24'714.9
2018-May-29 20:00N 23°39' E 118°18'714.7
2018-May-29 19:30N 23°35' E 118°12'714.4
2018-May-29 19:00N 23°32' E 118°05'914.2
2018-May-29 18:23N 23°27' E 117°56'514.2
2018-May-29 18:00N 23°26' E 117°51'714.4
2018-May-29 17:30N 23°22' E 117°44'714.6
2018-May-29 17:00N 23°19' E 117°37'815.4
2018-May-29 16:30N 23°15' E 117°30'816.3
2018-May-29 16:00N 23°11' E 117°22'8016.2
2018-May-29 11:04N 22°28' E 116°09'1016.0
2018-May-29 10:26N 22°25' E 115°58'715.8
2018-May-29 10:00N 22°24' E 115°51'284 7.3
2018-May-27 19:09N 18°13' E 113°29'718.8
2018-May-27 18:45N 18°06' E 113°27'  
2018-May-25 04:10N 01°28' E 104°32'317.0
2018-May-25 03:58N 01°26' E 104°29'817.3
2018-May-25 03:30N 01°20' E 104°24'816.6
2018-May-25 03:00N 01°17' E 104°16'817.2
2018-May-25 02:30N 01°16' E 104°07'816.2
2018-May-25 02:00N 01°15' E 103°59'511.0
2018-May-25 01:30N 01°13' E 103°54'510.3
2018-May-25 01:00N 01°12' E 103°49'4 7.5
2018-May-25 00:30N 01°15' E 103°48'0 0.9
2018-May-24 23:58N 01°16' E 103°47'0 0.0
2018-May-24 23:29N 01°16' E 103°47'0 0.0
2018-May-24 22:59N 01°16' E 103°47'0 0.0
2018-May-24 22:29N 01°16' E 103°47'0 0.0
2018-May-24 22:00N 01°16' E 103°47'0 0.0
2018-May-24 21:29N 01°16' E 103°47'0 0.0
2018-May-24 20:58N 01°16' E 103°47'0 0.0
2018-May-24 20:29N 01°16' E 103°47'0 0.0
2018-May-24 20:00N 01°16' E 103°47'0 0.0
2018-May-24 19:28N 01°16' E 103°47'0 0.0
2018-May-24 18:58N 01°16' E 103°47'0 0.0
2018-May-24 18:29N 01°16' E 103°47'0 0.0
2018-May-24 17:56N 01°16' E 103°47'0 0.0
2018-May-24 17:22N 01°16' E 103°47'0 0.0
2018-May-24 16:58N 01°16' E 103°47'0 0.0
2018-May-24 16:29N 01°16' E 103°47'0 0.0
2018-May-24 16:00N 01°16' E 103°47'0 0.0
2018-May-24 15:28N 01°16' E 103°47'0 0.0
2018-May-24 14:58N 01°16' E 103°47'0 0.0
2018-May-24 14:28N 01°16' E 103°47'0 0.0
2018-May-24 13:59N 01°16' E 103°47'0 0.0
2018-May-24 13:30N 01°16' E 103°47'0 0.0
2018-May-24 08:58N 01°16' E 103°47'0 0.0
2018-May-24 08:29N 01°16' E 103°47'0 0.0
2018-May-24 07:58N 01°16' E 103°47'0 0.0
2018-May-24 07:29N 01°16' E 103°47'0 0.0
2018-May-24 06:59N 01°16' E 103°47'0 0.0
2018-May-24 06:29N 01°16' E 103°47'0 0.0
2018-May-24 05:59N 01°16' E 103°47'0 0.0
2018-May-24 05:29N 01°16' E 103°47'0 0.0
2018-May-24 04:58N 01°16' E 103°47'0 0.0
2018-May-24 04:29N 01°16' E 103°47'0 0.0
2018-May-24 03:58N 01°16' E 103°47'0 0.6
2018-May-24 03:30N 01°16' E 103°48'1 1.1
2018-May-24 03:00N 01°15' E 103°48'1 1.8
2018-May-24 02:30N 01°15' E 103°47'712.9
2018-May-24 02:00N 01°13' E 103°41'5 9.4
2018-May-24 01:29N 01°12' E 103°36'711.0
2018-May-24 00:51N 01°09' E 103°29'  
Track history (hours):
 
Tides and Currents Weather Stations Pressure Air Temp Water Temp Dewpoint Dewpoint Depression Visibility Wind Speed Wind Dir Waves Ship Positions

CMA CGM Musset

Last reported at 2018-May-29 22:31 UTC. Time now 2018-Jun-20 07:52 UTC.
Position N 24°05' E 118°51'.
Warning: this ship's position is 21 days out of date.

Length 300 m; draft 8.2 m.

Type: Cargo ship. MMSI: 248247000.

Date/timePositionNaut miles runAvg speedWind from/ knotsBaromVisibWave heightAir tempDewpointWater temp
2018-May-29 22:31N 24°05' E 118°51'116.1
2018-May-29 22:29N 24°04' E 118°50'815.9
2018-May-29 22:00N 23°59' E 118°44'915.7
2018-May-29 21:25N 23°53' E 118°36'715.5
2018-May-29 21:00N 23°49' E 118°31'815.2
2018-May-29 20:29N 23°44' E 118°24'714.9
2018-May-29 20:00N 23°39' E 118°18'714.7
2018-May-29 19:30N 23°35' E 118°12'714.4
2018-May-29 19:00N 23°32' E 118°05'914.2
2018-May-29 18:23N 23°27' E 117°56'514.2
2018-May-29 18:00N 23°26' E 117°51'714.4
2018-May-29 17:30N 23°22' E 117°44'714.6
2018-May-29 17:00N 23°19' E 117°37'815.4
2018-May-29 16:30N 23°15' E 117°30'816.3
2018-May-29 16:00N 23°11' E 117°22'8016.2
2018-May-29 11:04N 22°28' E 116°09'1016.0
2018-May-29 10:26N 22°25' E 115°58'715.8
2018-May-29 10:00N 22°24' E 115°51'284 7.3
2018-May-27 19:09N 18°13' E 113°29'718.8
2018-May-27 18:45N 18°06' E 113°27'  
2018-May-25 04:10N 01°28' E 104°32'317.0
2018-May-25 03:58N 01°26' E 104°29'817.3
2018-May-25 03:30N 01°20' E 104°24'816.6
2018-May-25 03:00N 01°17' E 104°16'817.2
2018-May-25 02:30N 01°16' E 104°07'816.2
2018-May-25 02:00N 01°15' E 103°59'511.0
2018-May-25 01:30N 01°13' E 103°54'510.3
2018-May-25 01:00N 01°12' E 103°49'4 7.5
2018-May-25 00:30N 01°15' E 103°48'0 0.9
2018-May-24 23:58N 01°16' E 103°47'0 0.0
2018-May-24 23:29N 01°16' E 103°47'0 0.0
2018-May-24 22:59N 01°16' E 103°47'0 0.0
2018-May-24 22:29N 01°16' E 103°47'0 0.0
2018-May-24 22:00N 01°16' E 103°47'0 0.0
2018-May-24 21:29N 01°16' E 103°47'0 0.0
2018-May-24 20:58N 01°16' E 103°47'0 0.0
2018-May-24 20:29N 01°16' E 103°47'0 0.0
2018-May-24 20:00N 01°16' E 103°47'0 0.0
2018-May-24 19:28N 01°16' E 103°47'0 0.0
2018-May-24 18:58N 01°16' E 103°47'0 0.0
2018-May-24 18:29N 01°16' E 103°47'0 0.0
2018-May-24 17:56N 01°16' E 103°47'0 0.0
2018-May-24 17:22N 01°16' E 103°47'0 0.0
2018-May-24 16:58N 01°16' E 103°47'0 0.0
2018-May-24 16:29N 01°16' E 103°47'0 0.0
2018-May-24 16:00N 01°16' E 103°47'0 0.0
2018-May-24 15:28N 01°16' E 103°47'0 0.0
2018-May-24 14:58N 01°16' E 103°47'0 0.0
2018-May-24 14:28N 01°16' E 103°47'0 0.0
2018-May-24 13:59N 01°16' E 103°47'0 0.0
2018-May-24 13:30N 01°16' E 103°47'0 0.0
2018-May-24 08:58N 01°16' E 103°47'0 0.0
2018-May-24 08:29N 01°16' E 103°47'0 0.0
2018-May-24 07:58N 01°16' E 103°47'0 0.0
2018-May-24 07:29N 01°16' E 103°47'0 0.0
2018-May-24 06:59N 01°16' E 103°47'0 0.0
2018-May-24 06:29N 01°16' E 103°47'0 0.0
2018-May-24 05:59N 01°16' E 103°47'0 0.0
2018-May-24 05:29N 01°16' E 103°47'0 0.0
2018-May-24 04:58N 01°16' E 103°47'0 0.0
2018-May-24 04:29N 01°16' E 103°47'0 0.0
2018-May-24 03:58N 01°16' E 103°47'0 0.6
2018-May-24 03:30N 01°16' E 103°48'1 1.1
2018-May-24 03:00N 01°15' E 103°48'1 1.8
2018-May-24 02:30N 01°15' E 103°47'712.9
2018-May-24 02:00N 01°13' E 103°41'5 9.4
2018-May-24 01:29N 01°12' E 103°36'711.0
2018-May-24 00:51N 01°09' E 103°29'  

Dump ship's entire track history